sensor_id;sensor_type;location;lat;lon;timestamp;pressure;altitude;pressure_sealevel;temperature;humidity
79362;BME280;68830;47.566;19.012;2023-05-07T00:02:47;99965.72;;;15.38;75.02
79362;BME280;68830;47.566;19.012;2023-05-07T00:05:49;99968.75;;;15.35;75.95
79362;BME280;68830;47.566;19.012;2023-05-07T00:08:51;99962.94;;;15.32;75.61
79362;BME280;68830;47.566;19.012;2023-05-07T00:11:53;99968.97;;;15.25;75.88
79362;BME280;68830;47.566;19.012;2023-05-07T00:14:55;99958.53;;;15.16;76.06
79362;BME280;68830;47.566;19.012;2023-05-07T00:17:58;99959.44;;;15.08;76.29
79362;BME280;68830;47.566;19.012;2023-05-07T00:21:01;99961.03;;;14.94;77.16
79362;BME280;68830;47.566;19.012;2023-05-07T00:24:04;99960.25;;;14.86;77.57
79362;BME280;68830;47.566;19.012;2023-05-07T00:27:06;99947.91;;;14.85;77.37
79362;BME280;68830;47.566;19.012;2023-05-07T00:30:09;99962.59;;;14.81;77.70
79362;BME280;68830;47.566;19.012;2023-05-07T00:33:13;99967.09;;;14.80;77.50
79362;BME280;68830;47.566;19.012;2023-05-07T00:36:15;99966.47;;;14.70;78.30
79362;BME280;68830;47.566;19.012;2023-05-07T00:39:17;99966.47;;;14.70;78.32
79362;BME280;68830;47.566;19.012;2023-05-07T00:42:19;99976.19;;;14.63;78.77
79362;BME280;68830;47.566;19.012;2023-05-07T00:45:21;99976.72;;;14.58;79.40
79362;BME280;68830;47.566;19.012;2023-05-07T00:48:26;99972.53;;;14.64;78.86
79362;BME280;68830;47.566;19.012;2023-05-07T00:51:29;99965.53;;;14.63;78.59
79362;BME280;68830;47.566;19.012;2023-05-07T00:54:32;99978.16;;;14.69;78.27
79362;BME280;68830;47.566;19.012;2023-05-07T00:57:36;99987.34;;;14.67;79.10
79362;BME280;68830;47.566;19.012;2023-05-07T01:00:39;99972.22;;;14.59;79.19
79362;BME280;68830;47.566;19.012;2023-05-07T01:03:43;99964.25;;;14.51;78.86
79362;BME280;68830;47.566;19.012;2023-05-07T01:06:45;99953.78;;;14.49;79.57
79362;BME280;68830;47.566;19.012;2023-05-07T01:09:48;99984.31;;;14.70;79.51
79362;BME280;68830;47.566;19.012;2023-05-07T01:12:51;99968.00;;;14.73;79.26
79362;BME280;68830;47.566;19.012;2023-05-07T01:15:53;99976.94;;;14.80;79.45
79362;BME280;68830;47.566;19.012;2023-05-07T01:18:56;99973.63;;;14.78;79.35
79362;BME280;68830;47.566;19.012;2023-05-07T01:22:02;99983.34;;;14.71;79.23
79362;BME280;68830;47.566;19.012;2023-05-07T01:25:07;99994.31;;;14.68;79.75
79362;BME280;68830;47.566;19.012;2023-05-07T01:28:10;99925.59;;;14.16;79.89
79362;BME280;68830;47.566;19.012;2023-05-07T01:31:13;99993.72;;;14.57;80.27
79362;BME280;68830;47.566;19.012;2023-05-07T01:34:17;99990.06;;;14.50;80.46
79362;BME280;68830;47.566;19.012;2023-05-07T01:37:19;99987.59;;;14.49;80.88
79362;BME280;68830;47.566;19.012;2023-05-07T01:40:24;99987.44;;;14.42;80.63
79362;BME280;68830;47.566;19.012;2023-05-07T01:43:28;99985.91;;;14.40;80.71
79362;BME280;68830;47.566;19.012;2023-05-07T01:46:31;99990.25;;;14.41;81.23
79362;BME280;68830;47.566;19.012;2023-05-07T01:49:34;99974.00;;;14.27;81.54
79362;BME280;68830;47.566;19.012;2023-05-07T01:52:37;99977.31;;;14.29;81.04
79362;BME280;68830;47.566;19.012;2023-05-07T01:55:42;99983.81;;;14.27;81.00
79362;BME280;68830;47.566;19.012;2023-05-07T01:58:44;99966.38;;;14.16;81.26
79362;BME280;68830;47.566;19.012;2023-05-07T02:01:46;99976.34;;;14.14;81.18
79362;BME280;68830;47.566;19.012;2023-05-07T02:04:49;99950.44;;;14.00;81.61
79362;BME280;68830;47.566;19.012;2023-05-07T02:07:51;99967.88;;;14.11;81.26
79362;BME280;68830;47.566;19.012;2023-05-07T02:10:54;99955.94;;;13.98;81.01
79362;BME280;68830;47.566;19.012;2023-05-07T02:13:56;99974.22;;;14.10;80.82
79362;BME280;68830;47.566;19.012;2023-05-07T02:16:58;99947.78;;;14.00;80.37
79362;BME280;68830;47.566;19.012;2023-05-07T02:20:00;99968.38;;;14.06;80.65
79362;BME280;68830;47.566;19.012;2023-05-07T02:23:02;99975.72;;;14.12;80.77
79362;BME280;68830;47.566;19.012;2023-05-07T02:26:05;99980.38;;;14.10;81.03
79362;BME280;68830;47.566;19.012;2023-05-07T02:29:08;99963.88;;;14.15;81.13
79362;BME280;68830;47.566;19.012;2023-05-07T02:32:10;99903.25;;;13.69;81.14
79362;BME280;68830;47.566;19.012;2023-05-07T02:35:12;99963.88;;;14.06;81.06
79362;BME280;68830;47.566;19.012;2023-05-07T02:38:14;99963.44;;;13.95;81.45
79362;BME280;68830;47.566;19.012;2023-05-07T02:41:17;99955.94;;;13.90;81.52
79362;BME280;68830;47.566;19.012;2023-05-07T02:44:20;99966.75;;;13.89;81.75
79362;BME280;68830;47.566;19.012;2023-05-07T02:47:22;99960.47;;;13.82;81.76
79362;BME280;68830;47.566;19.012;2023-05-07T02:50:25;99970.28;;;13.81;81.48
79362;BME280;68830;47.566;19.012;2023-05-07T02:53:28;99952.66;;;13.72;81.89
79362;BME280;68830;47.566;19.012;2023-05-07T02:56:32;99959.28;;;13.76;81.63
79362;BME280;68830;47.566;19.012;2023-05-07T02:59:34;99957.63;;;13.75;81.99
79362;BME280;68830;47.566;19.012;2023-05-07T03:02:35;99961.78;;;13.77;81.39
79362;BME280;68830;47.566;19.012;2023-05-07T03:05:38;99962.94;;;13.75;81.50
79362;BME280;68830;47.566;19.012;2023-05-07T03:08:40;99971.09;;;13.73;81.32
79362;BME280;68830;47.566;19.012;2023-05-07T03:11:43;99967.94;;;13.62;81.67
79362;BME280;68830;47.566;19.012;2023-05-07T03:14:45;99964.31;;;13.55;81.47
79362;BME280;68830;47.566;19.012;2023-05-07T03:17:47;99945.88;;;13.37;81.97
79362;BME280;68830;47.566;19.012;2023-05-07T03:20:49;99963.47;;;13.46;81.33
79362;BME280;68830;47.566;19.012;2023-05-07T03:23:51;99969.31;;;13.41;81.94
79362;BME280;68830;47.566;19.012;2023-05-07T03:26:54;99974.78;;;13.40;81.35
79362;BME280;68830;47.566;19.012;2023-05-07T03:29:57;99959.84;;;13.39;81.92
79362;BME280;68830;47.566;19.012;2023-05-07T03:32:59;99946.88;;;13.36;81.73
79362;BME280;68830;47.566;19.012;2023-05-07T03:36:02;99965.31;;;13.37;81.65
79362;BME280;68830;47.566;19.012;2023-05-07T03:39:04;99893.13;;;13.00;82.03
79362;BME280;68830;47.566;19.012;2023-05-07T03:42:07;99974.47;;;13.51;82.35
79362;BME280;68830;47.566;19.012;2023-05-07T03:45:10;99975.28;;;13.52;81.74
79362;BME280;68830;47.566;19.012;2023-05-07T03:48:12;99969.31;;;13.50;81.80
79362;BME280;68830;47.566;19.012;2023-05-07T03:51:14;99974.81;;;13.48;81.92
79362;BME280;68830;47.566;19.012;2023-05-07T03:54:16;99975.78;;;13.39;82.02
79362;BME280;68830;47.566;19.012;2023-05-07T03:57:19;99970.97;;;13.26;81.87
79362;BME280;68830;47.566;19.012;2023-05-07T04:00:21;99983.91;;;13.29;82.27
79362;BME280;68830;47.566;19.012;2023-05-07T04:03:24;99982.44;;;13.27;81.75
79362;BME280;68830;47.566;19.012;2023-05-07T04:06:26;99981.75;;;13.25;82.40
79362;BME280;68830;47.566;19.012;2023-05-07T04:09:29;99977.09;;;13.27;82.39
79362;BME280;68830;47.566;19.012;2023-05-07T04:12:32;99993.72;;;13.29;82.16
79362;BME280;68830;47.566;19.012;2023-05-07T04:15:35;99984.59;;;13.23;81.56
79362;BME280;68830;47.566;19.012;2023-05-07T04:18:37;99976.56;;;13.15;82.52
79362;BME280;68830;47.566;19.012;2023-05-07T04:21:39;99986.41;;;13.23;82.77
79362;BME280;68830;47.566;19.012;2023-05-07T04:24:41;99963.94;;;13.17;82.25
79362;BME280;68830;47.566;19.012;2023-05-07T04:27:45;99992.59;;;13.39;82.71
79362;BME280;68830;47.566;19.012;2023-05-07T04:30:47;99998.06;;;13.46;82.54
79362;BME280;68830;47.566;19.012;2023-05-07T04:33:50;100002.56;;;13.54;82.14
79362;BME280;68830;47.566;19.012;2023-05-07T04:36:53;100001.53;;;13.63;82.44
79362;BME280;68830;47.566;19.012;2023-05-07T04:39:55;100001.56;;;13.71;81.44
79362;BME280;68830;47.566;19.012;2023-05-07T04:42:58;99996.25;;;13.79;81.67
79362;BME280;68830;47.566;19.012;2023-05-07T04:46:00;99997.88;;;13.96;81.33
79362;BME280;68830;47.566;19.012;2023-05-07T04:49:03;100005.19;;;14.02;81.03
79362;BME280;68830;47.566;19.012;2023-05-07T04:52:05;100003.34;;;14.11;80.62
79362;BME280;68830;47.566;19.012;2023-05-07T04:55:07;99994.84;;;14.16;79.94
79362;BME280;68830;47.566;19.012;2023-05-07T04:58:11;99990.16;;;14.18;80.32
79362;BME280;68830;47.566;19.012;2023-05-07T05:01:13;99966.50;;;14.23;79.88
79362;BME280;68830;47.566;19.012;2023-05-07T05:04:16;100004.94;;;14.45;79.20
79362;BME280;68830;47.566;19.012;2023-05-07T05:07:18;100025.25;;;14.46;78.89
79362;BME280;68830;47.566;19.012;2023-05-07T05:10:20;100030.06;;;14.42;79.38
79362;BME280;68830;47.566;19.012;2023-05-07T05:13:27;100030.22;;;14.49;79.50
79362;BME280;68830;47.566;19.012;2023-05-07T05:16:29;100034.00;;;14.62;79.34
79362;BME280;68830;47.566;19.012;2023-05-07T05:19:33;100036.97;;;14.68;79.15
79362;BME280;68830;47.566;19.012;2023-05-07T05:22:35;100035.28;;;14.75;78.93
79362;BME280;68830;47.566;19.012;2023-05-07T05:25:36;100029.59;;;14.78;78.61
79362;BME280;68830;47.566;19.012;2023-05-07T05:28:42;100035.75;;;14.86;78.84
79362;BME280;68830;47.566;19.012;2023-05-07T05:31:44;100026.31;;;14.99;78.61
79362;BME280;68830;47.566;19.012;2023-05-07T05:34:47;100023.53;;;15.23;78.79
79362;BME280;68830;47.566;19.012;2023-05-07T05:37:49;100025.34;;;15.45;78.08
79362;BME280;68830;47.566;19.012;2023-05-07T05:40:51;100017.13;;;15.78;77.15
79362;BME280;68830;47.566;19.012;2023-05-07T05:43:57;100013.66;;;16.07;75.97
79362;BME280;68830;47.566;19.012;2023-05-07T05:46:59;100015.53;;;16.21;73.73
79362;BME280;68830;47.566;19.012;2023-05-07T05:50:02;100013.97;;;16.41;73.72
79362;BME280;68830;47.566;19.012;2023-05-07T05:53:04;100023.28;;;16.60;73.30
79362;BME280;68830;47.566;19.012;2023-05-07T05:56:06;100009.53;;;16.78;72.54
79362;BME280;68830;47.566;19.012;2023-05-07T05:59:10;100021.22;;;16.92;72.49
79362;BME280;68830;47.566;19.012;2023-05-07T06:02:12;100018.44;;;17.00;71.50
79362;BME280;68830;47.566;19.012;2023-05-07T06:05:15;100012.03;;;17.16;70.87
79362;BME280;68830;47.566;19.012;2023-05-07T06:08:17;100001.72;;;17.34;72.74
79362;BME280;68830;47.566;19.012;2023-05-07T06:11:21;99986.22;;;17.51;70.64
79362;BME280;68830;47.566;19.012;2023-05-07T06:14:24;99996.97;;;17.57;68.10
79362;BME280;68830;47.566;19.012;2023-05-07T06:17:27;99997.25;;;17.62;68.97
79362;BME280;68830;47.566;19.012;2023-05-07T06:20:28;100001.47;;;17.72;68.42
79362;BME280;68830;47.566;19.012;2023-05-07T06:23:30;99990.63;;;17.80;67.81
79362;BME280;68830;47.566;19.012;2023-05-07T06:26:32;100016.72;;;17.99;67.68
79362;BME280;68830;47.566;19.012;2023-05-07T06:29:36;100005.50;;;17.89;67.14
79362;BME280;68830;47.566;19.012;2023-05-07T06:32:40;100012.63;;;18.03;67.40
79362;BME280;68830;47.566;19.012;2023-05-07T06:35:42;100019.81;;;18.31;68.99
79362;BME280;68830;47.566;19.012;2023-05-07T06:38:44;100021.59;;;18.51;68.70
79362;BME280;68830;47.566;19.012;2023-05-07T06:41:47;100024.53;;;18.57;67.19
79362;BME280;68830;47.566;19.012;2023-05-07T06:44:50;100017.25;;;18.50;68.56
79362;BME280;68830;47.566;19.012;2023-05-07T06:47:52;100014.91;;;18.69;67.63
79362;BME280;68830;47.566;19.012;2023-05-07T06:50:54;100010.41;;;18.76;67.20
79362;BME280;68830;47.566;19.012;2023-05-07T06:53:59;99993.56;;;19.02;67.79
79362;BME280;68830;47.566;19.012;2023-05-07T06:57:01;100015.09;;;19.22;66.41
79362;BME280;68830;47.566;19.012;2023-05-07T07:00:06;100010.75;;;19.27;66.09
79362;BME280;68830;47.566;19.012;2023-05-07T07:03:11;100009.34;;;19.31;66.88
79362;BME280;68830;47.566;19.012;2023-05-07T07:06:14;100016.13;;;19.27;65.02
79362;BME280;68830;47.566;19.012;2023-05-07T07:09:15;100017.34;;;19.18;64.48
79362;BME280;68830;47.566;19.012;2023-05-07T07:12:18;100019.19;;;19.11;65.06
79362;BME280;68830;47.566;19.012;2023-05-07T07:15:22;99983.41;;;18.97;66.55
79362;BME280;68830;47.566;19.012;2023-05-07T07:18:24;100022.97;;;19.36;65.98
79362;BME280;68830;47.566;19.012;2023-05-07T07:21:26;100027.72;;;19.34;63.61
79362;BME280;68830;47.566;19.012;2023-05-07T07:24:28;100034.31;;;19.32;63.86
79362;BME280;68830;47.566;19.012;2023-05-07T07:27:30;100034.16;;;19.47;63.46
79362;BME280;68830;47.566;19.012;2023-05-07T07:30:34;100045.56;;;19.62;62.50
79362;BME280;68830;47.566;19.012;2023-05-07T07:33:36;100032.91;;;19.49;63.28
79362;BME280;68830;47.566;19.012;2023-05-07T07:36:38;100042.25;;;19.66;64.07
79362;BME280;68830;47.566;19.012;2023-05-07T07:39:47;100051.16;;;19.80;63.76
79362;BME280;68830;47.566;19.012;2023-05-07T07:42:49;100050.72;;;19.90;63.88
79362;BME280;68830;47.566;19.012;2023-05-07T07:45:53;100048.03;;;20.03;64.48
79362;BME280;68830;47.566;19.012;2023-05-07T07:48:55;100050.94;;;20.02;60.76
79362;BME280;68830;47.566;19.012;2023-05-07T07:52:00;100050.31;;;19.99;60.41
79362;BME280;68830;47.566;19.012;2023-05-07T07:55:03;100047.81;;;20.05;61.46
79362;BME280;68830;47.566;19.012;2023-05-07T07:58:06;100042.25;;;20.13;61.61
79362;BME280;68830;47.566;19.012;2023-05-07T08:01:09;100048.25;;;20.15;63.52
79362;BME280;68830;47.566;19.012;2023-05-07T08:04:11;99979.31;;;19.08;63.44
79362;BME280;68830;47.566;19.012;2023-05-07T08:07:13;99986.97;;;19.04;66.11
79362;BME280;68830;47.566;19.012;2023-05-07T08:10:15;100005.69;;;18.85;64.34
79362;BME280;68830;47.566;19.012;2023-05-07T08:13:22;99978.88;;;18.91;65.29
79362;BME280;68830;47.566;19.012;2023-05-07T08:16:26;99987.91;;;18.77;63.62
79362;BME280;68830;47.566;19.012;2023-05-07T08:19:28;99988.63;;;19.05;64.60
79362;BME280;68830;47.566;19.012;2023-05-07T08:22:30;99982.63;;;19.03;62.70
79362;BME280;68830;47.566;19.012;2023-05-07T08:25:32;99965.44;;;18.91;66.79
79362;BME280;68830;47.566;19.012;2023-05-07T08:28:35;99986.09;;;18.91;63.39
79362;BME280;68830;47.566;19.012;2023-05-07T08:31:38;100046.22;;;19.09;64.40
79362;BME280;68830;47.566;19.012;2023-05-07T08:34:41;100037.44;;;19.49;65.71
79362;BME280;68830;47.566;19.012;2023-05-07T08:37:43;100039.56;;;19.86;62.01
79362;BME280;68830;47.566;19.012;2023-05-07T08:40:46;100039.97;;;20.03;61.15
79362;BME280;68830;47.566;19.012;2023-05-07T08:43:49;100038.50;;;20.27;61.82
79362;BME280;68830;47.566;19.012;2023-05-07T08:46:54;100034.97;;;20.33;60.54
79362;BME280;68830;47.566;19.012;2023-05-07T08:49:57;100046.97;;;20.30;62.46
79362;BME280;68830;47.566;19.012;2023-05-07T08:52:59;100053.63;;;20.28;61.74
79362;BME280;68830;47.566;19.012;2023-05-07T08:56:02;100047.00;;;20.37;62.75
79362;BME280;68830;47.566;19.012;2023-05-07T08:59:05;100058.97;;;20.35;62.32
79362;BME280;68830;47.566;19.012;2023-05-07T09:02:09;100028.56;;;20.21;64.97
79362;BME280;68830;47.566;19.012;2023-05-07T09:05:12;100030.28;;;19.82;63.94
79362;BME280;68830;47.566;19.012;2023-05-07T09:08:15;100028.59;;;19.75;63.89
79362;BME280;68830;47.566;19.012;2023-05-07T09:11:20;100024.44;;;20.38;63.92
79362;BME280;68830;47.566;19.012;2023-05-07T09:14:22;100030.34;;;20.67;61.57
79362;BME280;68830;47.566;19.012;2023-05-07T09:17:27;100038.66;;;20.65;61.87
79362;BME280;68830;47.566;19.012;2023-05-07T09:20:30;100022.13;;;20.55;61.08
79362;BME280;68830;47.566;19.012;2023-05-07T09:23:33;100024.16;;;20.66;61.14
79362;BME280;68830;47.566;19.012;2023-05-07T09:26:35;100024.44;;;20.45;60.71
79362;BME280;68830;47.566;19.012;2023-05-07T09:29:37;100021.72;;;20.58;61.25
79362;BME280;68830;47.566;19.012;2023-05-07T09:32:40;100020.09;;;20.44;62.62
79362;BME280;68830;47.566;19.012;2023-05-07T09:35:42;100022.78;;;20.44;63.11
79362;BME280;68830;47.566;19.012;2023-05-07T09:38:45;100031.72;;;20.89;59.95
79362;BME280;68830;47.566;19.012;2023-05-07T09:41:47;100029.31;;;20.74;57.65
79362;BME280;68830;47.566;19.012;2023-05-07T09:44:52;100020.97;;;20.89;58.33
79362;BME280;68830;47.566;19.012;2023-05-07T09:47:57;100027.47;;;21.13;58.64
79362;BME280;68830;47.566;19.012;2023-05-07T09:51:02;100005.84;;;21.33;56.56
79362;BME280;68830;47.566;19.012;2023-05-07T09:54:06;100015.59;;;20.89;56.99
79362;BME280;68830;47.566;19.012;2023-05-07T09:57:09;100022.78;;;21.02;57.82
79362;BME280;68830;47.566;19.012;2023-05-07T10:00:12;100024.38;;;21.09;57.56
79362;BME280;68830;47.566;19.012;2023-05-07T10:03:19;100018.38;;;21.07;56.95
79362;BME280;68830;47.566;19.012;2023-05-07T10:06:24;100023.31;;;21.17;57.48
79362;BME280;68830;47.566;19.012;2023-05-07T10:09:27;100037.16;;;21.27;55.75
79362;BME280;68830;47.566;19.012;2023-05-07T10:12:30;100032.03;;;21.12;54.42
79362;BME280;68830;47.566;19.012;2023-05-07T10:15:38;100029.44;;;20.93;54.06
79362;BME280;68830;47.566;19.012;2023-05-07T10:18:43;100023.41;;;20.97;54.20
79362;BME280;68830;47.566;19.012;2023-05-07T10:21:54;100026.34;;;20.89;54.72
79362;BME280;68830;47.566;19.012;2023-05-07T10:25:01;100029.22;;;20.94;56.69
79362;BME280;68830;47.566;19.012;2023-05-07T10:28:06;100015.81;;;21.26;52.75
79362;BME280;68830;47.566;19.012;2023-05-07T10:31:18;100017.19;;;21.41;53.94
79362;BME280;68830;47.566;19.012;2023-05-07T10:34:28;100019.03;;;21.72;55.29
79362;BME280;68830;47.566;19.012;2023-05-07T10:37:32;100015.50;;;21.72;55.86
79362;BME280;68830;47.566;19.012;2023-05-07T10:40:35;100000.53;;;21.13;53.29
79362;BME280;68830;47.566;19.012;2023-05-07T10:43:39;100005.25;;;21.24;52.86
79362;BME280;68830;47.566;19.012;2023-05-07T10:46:42;100031.34;;;21.24;52.58
79362;BME280;68830;47.566;19.012;2023-05-07T10:50:23;100015.19;;;21.62;51.66
79362;BME280;68830;47.566;19.012;2023-05-07T10:53:25;100004.94;;;21.95;50.63
79362;BME280;68830;47.566;19.012;2023-05-07T10:56:29;100018.97;;;22.65;49.03
79362;BME280;68830;47.566;19.012;2023-05-07T10:59:35;100017.72;;;22.68;48.12
79362;BME280;68830;47.566;19.012;2023-05-07T11:03:06;100018.34;;;22.09;48.08
79362;BME280;68830;47.566;19.012;2023-05-07T11:06:12;100017.00;;;22.36;49.14
79362;BME280;68830;47.566;19.012;2023-05-07T11:09:14;100014.72;;;22.40;48.52
79362;BME280;68830;47.566;19.012;2023-05-07T11:12:16;99999.84;;;22.49;47.83
79362;BME280;68830;47.566;19.012;2023-05-07T11:15:35;100001.50;;;22.31;48.18
79362;BME280;68830;47.566;19.012;2023-05-07T11:18:47;100012.66;;;22.35;48.41
79362;BME280;68830;47.566;19.012;2023-05-07T11:21:52;100013.56;;;22.65;48.42
79362;BME280;68830;47.566;19.012;2023-05-07T11:24:55;100010.13;;;22.40;48.85
79362;BME280;68830;47.566;19.012;2023-05-07T11:28:04;100015.75;;;22.57;48.27
79362;BME280;68830;47.566;19.012;2023-05-07T11:31:07;100010.66;;;22.67;46.29
79362;BME280;68830;47.566;19.012;2023-05-07T11:34:10;100005.28;;;22.85;48.73
79362;BME280;68830;47.566;19.012;2023-05-07T11:37:18;100007.59;;;23.12;46.68
79362;BME280;68830;47.566;19.012;2023-05-07T11:40:21;100001.41;;;22.93;45.55
79362;BME280;68830;47.566;19.012;2023-05-07T11:43:23;100001.50;;;22.68;45.21
79362;BME280;68830;47.566;19.012;2023-05-07T11:46:26;99996.78;;;22.63;46.49
79362;BME280;68830;47.566;19.012;2023-05-07T11:49:28;100000.22;;;22.71;45.99
79362;BME280;68830;47.566;19.012;2023-05-07T11:52:34;100007.69;;;23.05;46.11
79362;BME280;68830;47.566;19.012;2023-05-07T11:55:36;99996.47;;;23.20;45.89
79362;BME280;68830;47.566;19.012;2023-05-07T11:58:39;99978.34;;;23.50;46.03
79362;BME280;68830;47.566;19.012;2023-05-07T12:01:45;99991.13;;;23.32;45.33
79362;BME280;68830;47.566;19.012;2023-05-07T12:04:47;99989.47;;;23.31;46.68
79362;BME280;68830;47.566;19.012;2023-05-07T12:07:56;99992.19;;;23.01;45.92
79362;BME280;68830;47.566;19.012;2023-05-07T12:10:58;99993.06;;;23.24;45.71
79362;BME280;68830;47.566;19.012;2023-05-07T12:14:01;99976.03;;;23.24;44.91
79362;BME280;68830;47.566;19.012;2023-05-07T12:17:04;99985.03;;;23.06;43.85
79362;BME280;68830;47.566;19.012;2023-05-07T12:20:08;99991.00;;;22.60;45.16
79362;BME280;68830;47.566;19.012;2023-05-07T12:23:12;99978.09;;;22.99;44.81
79362;BME280;68830;47.566;19.012;2023-05-07T12:26:14;99976.59;;;23.44;45.12
79362;BME280;68830;47.566;19.012;2023-05-07T12:29:16;99988.78;;;23.05;45.70
79362;BME280;68830;47.566;19.012;2023-05-07T12:32:19;99979.72;;;22.81;46.04
79362;BME280;68830;47.566;19.012;2023-05-07T12:35:27;99966.59;;;23.03;45.39
79362;BME280;68830;47.566;19.012;2023-05-07T12:38:35;99976.09;;;23.36;46.48
79362;BME280;68830;47.566;19.012;2023-05-07T12:41:52;99969.97;;;23.29;43.74
79362;BME280;68830;47.566;19.012;2023-05-07T12:44:56;99957.09;;;23.12;44.43
79362;BME280;68830;47.566;19.012;2023-05-07T12:48:01;99966.91;;;23.37;44.21
79362;BME280;68830;47.566;19.012;2023-05-07T12:51:05;99969.06;;;23.46;43.92
79362;BME280;68830;47.566;19.012;2023-05-07T12:54:09;99975.94;;;23.96;42.71
79362;BME280;68830;47.566;19.012;2023-05-07T12:57:11;99970.59;;;23.54;42.50
79362;BME280;68830;47.566;19.012;2023-05-07T13:00:14;99979.88;;;23.46;43.38
79362;BME280;68830;47.566;19.012;2023-05-07T13:03:21;99950.06;;;23.23;43.42
79362;BME280;68830;47.566;19.012;2023-05-07T13:06:24;99976.41;;;22.79;44.45
79362;BME280;68830;47.566;19.012;2023-05-07T13:09:28;99961.03;;;23.28;45.85
79362;BME280;68830;47.566;19.012;2023-05-07T13:12:33;99979.72;;;23.30;44.64
79362;BME280;68830;47.566;19.012;2023-05-07T13:15:34;99957.53;;;22.98;44.52
79362;BME280;68830;47.566;19.012;2023-05-07T13:18:38;99959.19;;;23.10;43.97
79362;BME280;68830;47.566;19.012;2023-05-07T13:21:41;99954.31;;;23.19;44.09
79362;BME280;68830;47.566;19.012;2023-05-07T13:24:45;99963.75;;;23.28;44.38
79362;BME280;68830;47.566;19.012;2023-05-07T13:27:47;99941.16;;;23.76;43.18
79362;BME280;68830;47.566;19.012;2023-05-07T13:31:03;99955.38;;;23.95;42.28
79362;BME280;68830;47.566;19.012;2023-05-07T13:34:05;99958.75;;;23.67;42.84
79362;BME280;68830;47.566;19.012;2023-05-07T13:37:07;99955.09;;;23.08;43.99
79362;BME280;68830;47.566;19.012;2023-05-07T13:40:13;99950.44;;;23.26;42.61
79362;BME280;68830;47.566;19.012;2023-05-07T13:43:15;99938.50;;;23.46;43.41
79362;BME280;68830;47.566;19.012;2023-05-07T13:46:19;99931.16;;;23.23;43.42
79362;BME280;68830;47.566;19.012;2023-05-07T13:49:21;99932.72;;;23.31;42.84
79362;BME280;68830;47.566;19.012;2023-05-07T13:52:24;99934.13;;;23.33;41.82
79362;BME280;68830;47.566;19.012;2023-05-07T13:55:28;99938.09;;;23.61;41.90
79362;BME280;68830;47.566;19.012;2023-05-07T13:58:31;99930.31;;;23.11;42.12
79362;BME280;68830;47.566;19.012;2023-05-07T14:01:32;99921.69;;;23.32;42.01
79362;BME280;68830;47.566;19.012;2023-05-07T14:04:34;99935.19;;;23.55;41.75
79362;BME280;68830;47.566;19.012;2023-05-07T14:07:36;99932.25;;;23.34;40.77
79362;BME280;68830;47.566;19.012;2023-05-07T14:10:40;99923.19;;;23.28;40.74
79362;BME280;68830;47.566;19.012;2023-05-07T14:13:42;99929.00;;;23.43;41.94
79362;BME280;68830;47.566;19.012;2023-05-07T14:16:44;99932.94;;;23.41;40.94
79362;BME280;68830;47.566;19.012;2023-05-07T14:19:49;99927.38;;;23.77;40.38
79362;BME280;68830;47.566;19.012;2023-05-07T14:22:51;99935.16;;;23.20;41.92
79362;BME280;68830;47.566;19.012;2023-05-07T14:25:55;99925.28;;;23.14;41.82
79362;BME280;68830;47.566;19.012;2023-05-07T14:28:58;99933.13;;;23.04;43.05
79362;BME280;68830;47.566;19.012;2023-05-07T14:32:00;99944.22;;;22.84;42.84
79362;BME280;68830;47.566;19.012;2023-05-07T14:35:03;99937.53;;;22.69;41.78
79362;BME280;68830;47.566;19.012;2023-05-07T14:38:05;99949.56;;;22.54;42.87
79362;BME280;68830;47.566;19.012;2023-05-07T14:41:08;99947.44;;;22.56;43.85
79362;BME280;68830;47.566;19.012;2023-05-07T14:44:11;99953.75;;;22.50;43.34
79362;BME280;68830;47.566;19.012;2023-05-07T14:47:13;99942.81;;;22.27;43.61
79362;BME280;68830;47.566;19.012;2023-05-07T14:50:18;99941.75;;;22.46;44.42
79362;BME280;68830;47.566;19.012;2023-05-07T14:53:20;99952.25;;;22.54;45.53
79362;BME280;68830;47.566;19.012;2023-05-07T14:56:24;99962.59;;;22.39;46.52
79362;BME280;68830;47.566;19.012;2023-05-07T14:59:26;99941.91;;;21.90;45.88
79362;BME280;68830;47.566;19.012;2023-05-07T15:02:28;99955.22;;;21.91;45.91
79362;BME280;68830;47.566;19.012;2023-05-07T15:05:30;99951.75;;;21.59;46.28
79362;BME280;68830;47.566;19.012;2023-05-07T15:08:32;99965.31;;;21.71;46.89
79362;BME280;68830;47.566;19.012;2023-05-07T15:11:35;99964.34;;;21.65;47.19
79362;BME280;68830;47.566;19.012;2023-05-07T15:14:37;99953.47;;;21.78;47.63
79362;BME280;68830;47.566;19.012;2023-05-07T15:17:39;99946.91;;;21.68;46.80
79362;BME280;68830;47.566;19.012;2023-05-07T15:20:42;99955.66;;;21.63;46.27
79362;BME280;68830;47.566;19.012;2023-05-07T15:23:45;99962.38;;;21.79;46.18
79362;BME280;68830;47.566;19.012;2023-05-07T15:26:48;99960.75;;;21.71;44.70
79362;BME280;68830;47.566;19.012;2023-05-07T15:29:51;99953.78;;;21.64;45.22
79362;BME280;68830;47.566;19.012;2023-05-07T15:32:53;99964.63;;;21.82;44.28
79362;BME280;68830;47.566;19.012;2023-05-07T15:35:55;99949.44;;;21.63;44.43
79362;BME280;68830;47.566;19.012;2023-05-07T15:39:00;99955.16;;;21.48;44.16
79362;BME280;68830;47.566;19.012;2023-05-07T15:42:05;99952.19;;;21.56;44.00
79362;BME280;68830;47.566;19.012;2023-05-07T15:45:09;99956.72;;;21.62;43.53
79362;BME280;68830;47.566;19.012;2023-05-07T15:48:12;99961.50;;;21.60;42.94
79362;BME280;68830;47.566;19.012;2023-05-07T15:51:15;99959.38;;;21.37;43.88
79362;BME280;68830;47.566;19.012;2023-05-07T15:54:18;99959.66;;;21.29;43.77